KAUW/AUW METAR and TAF weather

Enter ICAO airport designator
Station Type Date Time Source
KAUW METAR 2020/01/19 22:54 UTC NOAA

KAUW 192254Z AUTO 31009KT 10SM OVC028 M06/M10 A3036 RMK AO2 SLP311 T10561100 $


Station Type Date Time Source
KAUW Decoded METAR 2020/01/19 22:54 UTC NOAA

WAUSAU DOWNTOWN AIRPORT, WI, United States (KAUW) 44-56N 089-37W 362M
Jan 19, 2020 - 05:54 PM EST / 2020.01.19 2254 UTC
Wind: from the NW (310 degrees) at 10 MPH (9 KT):0
Visibility: 10 mile(s):0
Sky conditions: overcast
Temperature: 21.9 F (-5.6 C)
Windchill: 10 F (-12 C):1
Dew Point: 14.0 F (-10.0 C)
Relative Humidity: 71%
Pressure (altimeter): 30.36 in. Hg (1028 hPa)
ob: KAUW 192254Z AUTO 31009KT 10SM OVC028 M06/M10 A3036 RMK AO2 SLP311 T10561100
cycle: 23

Station Type Date Time Source
KAUW TAF 2020/01/19 18:27 UTC NOAA

TAF KAUW 191724Z 1918/2018 33008G14KT P6SM -SHSN BKN027
FM200000 33006KT P6SM -SN BKN030
FM200500 33003KT P6SM SCT030
FM201400 31006KT P6SM BKN035

Example: see airport list